Time;durP1;ratioP1;P1;durP2;ratioP2;P2;SDS_P1;SDS_P2;PMS_P1;PMS_P2;Temp;Humidity;BMP_temperature;BMP_pressure;BME280_temperature;BME280_humidity;BME280_pressure;Samples;Min_cycle;Max_cycle;Signal;HPM_P1;HPM_P2
2023/07/18 00:00:18;;;;;;;8.95;4.15;;;;;;;14.13;100.00;102047.09;5029577;28;20037;-73
2023/07/18 00:02:44;;;;;;;5.68;3.45;;;;;;;14.06;100.00;102043.50;5029600;28;20037;-73
2023/07/18 00:05:14;;;;;;;9.27;4.13;;;;;;;14.06;100.00;102046.16;5011768;28;20045;-74
2023/07/18 00:07:41;;;;;;;5.55;4.18;;;;;;;14.10;100.00;102044.78;5029579;28;20033;-74
2023/07/18 00:10:08;;;;;;;5.82;3.35;;;;;;;14.05;100.00;102052.56;5029545;28;20029;-73
2023/07/18 00:12:35;;;;;;;5.95;3.20;;;;;;;14.02;100.00;102044.91;5011669;28;20029;-74
2023/07/18 00:15:03;;;;;;;6.53;3.10;;;;;;;13.99;100.00;102045.25;5029833;28;20461;-74
2023/07/18 00:17:28;;;;;;;7.57;3.75;;;;;;;13.91;100.00;102040.00;5029353;28;20037;-74
2023/07/18 00:19:54;;;;;;;8.32;3.65;;;;;;;13.91;100.00;102043.56;5029335;28;20053;-74
2023/07/18 00:22:20;;;;;;;13.23;5.55;;;;;;;13.90;100.00;102047.25;5029227;28;20022;-74
2023/07/18 00:24:45;;;;;;;10.13;3.70;;;;;;;13.93;100.00;102049.53;5029293;28;20064;-74
2023/07/18 00:27:10;;;;;;;11.10;3.88;;;;;;;13.94;100.00;102047.72;5029244;28;20026;-74
2023/07/18 00:29:35;;;;;;;7.07;3.33;;;;;;;13.92;100.00;102041.69;5029234;28;20476;-74
2023/07/18 00:32:01;;;;;;;8.13;3.72;;;;;;;13.95;100.00;102042.13;5028790;28;20557;-74
2023/07/18 00:34:26;;;;;;;8.90;3.60;;;;;;;13.98;100.00;102049.81;5029271;28;20147;-74
2023/07/18 00:36:55;;;;;;;5.63;3.33;;;;;;;13.98;100.00;102051.66;5028810;28;20041;-74
2023/07/18 00:39:20;;;;;;;9.93;4.50;;;;;;;13.98;100.00;102046.28;5029214;28;20060;-74
2023/07/18 00:41:46;;;;;;;9.48;3.63;;;;;;;14.00;100.00;102046.94;5029077;28;20139;-74
2023/07/18 00:44:11;;;;;;;8.88;3.60;;;;;;;14.02;100.00;102052.94;5029094;28;20032;-74
2023/07/18 00:46:36;;;;;;;7.03;3.50;;;;;;;14.02;100.00;102050.28;5029047;28;20053;-74
2023/07/18 00:49:02;;;;;;;8.40;3.72;;;;;;;14.06;100.00;102053.41;5032033;28;20036;-74
2023/07/18 00:51:28;;;;;;;8.60;3.85;;;;;;;14.03;100.00;102044.69;5033066;28;20099;-74
2023/07/18 00:53:53;;;;;;;8.75;4.80;;;;;;;14.05;100.00;102049.06;5033062;28;20037;-73
2023/07/18 00:56:19;;;;;;;8.98;4.45;;;;;;;13.96;100.00;102033.09;5032799;28;20065;-74
2023/07/18 00:58:44;;;;;;;10.23;4.25;;;;;;;14.05;100.00;102047.22;5032855;28;20456;-74
2023/07/18 01:01:10;;;;;;;9.40;4.25;;;;;;;14.05;100.00;102043.69;5032930;28;20037;-74
2023/07/18 01:03:37;;;;;;;9.73;4.30;;;;;;;14.04;100.00;102040.16;5032644;28;20493;-74
2023/07/18 01:06:04;;;;;;;6.40;3.97;;;;;;;13.97;100.00;102039.28;5051754;28;20033;-74
2023/07/18 01:08:29;;;;;;;11.13;3.85;;;;;;;13.88;100.00;102033.19;5033920;28;20028;-73
2023/07/18 01:10:54;;;;;;;8.10;3.38;;;;;;;13.83;100.00;102027.56;5051570;28;20450;-74
2023/07/18 01:13:20;;;;;;;9.32;3.47;;;;;;;13.81;100.00;102033.13;5051560;28;20033;-73
2023/07/18 01:15:46;;;;;;;8.80;3.72;;;;;;;13.74;100.00;102018.81;5033519;28;20124;-74
2023/07/18 01:18:13;;;;;;;6.03;3.40;;;;;;;13.77;100.00;102020.28;5033617;28;20052;-74
2023/07/18 01:20:39;;;;;;;7.75;4.30;;;;;;;13.76;100.00;102024.00;5051640;28;20499;-74
2023/07/18 01:23:05;;;;;;;8.52;4.60;;;;;;;13.78;100.00;102029.97;5051510;28;20476;-74
2023/07/18 01:25:31;;;;;;;7.03;3.53;;;;;;;13.80;100.00;102035.97;5051302;28;20033;-74
2023/07/18 01:27:59;;;;;;;8.27;3.88;;;;;;;13.72;100.00;102033.41;5032280;28;20029;-74
2023/07/18 01:30:26;;;;;;;8.55;4.53;;;;;;;13.74;100.00;102031.38;5032172;28;20021;-74
2023/07/18 01:32:52;;;;;;;12.68;5.30;;;;;;;13.79;100.00;102028.97;5014665;28;20038;-74
2023/07/18 01:35:25;;;;;;;12.23;5.18;;;;;;;13.82;100.00;102021.38;5031994;28;20040;-74
2023/07/18 01:37:53;;;;;;;11.02;5.13;;;;;;;13.88;100.00;102018.94;5015316;28;20025;-74
2023/07/18 01:40:20;;;;;;;7.07;3.78;;;;;;;13.82;100.00;102020.53;5031973;28;20072;-74
2023/07/18 01:42:51;;;;;;;6.38;3.70;;;;;;;13.70;100.00;102017.53;5036599;28;20039;-73
2023/07/18 01:45:18;;;;;;;7.13;3.90;;;;;;;13.69;100.00;102015.84;5051053;28;20036;-74
2023/07/18 01:47:43;;;;;;;8.88;3.92;;;;;;;13.68;100.00;102016.06;5051423;28;20074;-74
2023/07/18 01:50:08;;;;;;;8.05;4.38;;;;;;;13.59;100.00;102001.91;5051002;28;20423;-74
2023/07/18 01:52:34;;;;;;;7.30;4.22;;;;;;;13.59;100.00;101994.69;5033271;28;20098;-74
2023/07/18 01:55:03;;;;;;;10.70;4.43;;;;;;;13.54;100.00;101999.78;5032901;28;20039;-74
2023/07/18 01:57:42;;;;;;;9.40;4.85;;;;;;;13.56;100.00;102005.81;5050824;28;20025;-74
2023/07/18 02:00:12;;;;;;;9.20;5.38;;;;;;;13.52;100.00;102001.03;5049742;28;20075;-74
2023/07/18 02:02:38;;;;;;;9.15;4.25;;;;;;;13.58;100.00;102003.78;5051016;28;20468;-74
2023/07/18 02:05:04;;;;;;;7.57;4.85;;;;;;;13.56;100.00;102000.44;5050620;28;20060;-74
2023/07/18 02:07:30;;;;;;;10.40;4.78;;;;;;;13.61;100.00;101999.06;5031784;28;20131;-74
2023/07/18 02:09:55;;;;;;;8.45;4.22;;;;;;;13.63;100.00;101994.34;5031531;28;20053;-74
2023/07/18 02:12:21;;;;;;;11.73;4.82;;;;;;;13.65;100.00;101987.78;5031528;28;20108;-74
2023/07/18 02:14:46;;;;;;;10.30;4.28;;;;;;;13.58;100.00;101985.00;5031813;28;20104;-74
2023/07/18 02:17:11;;;;;;;5.60;4.25;;;;;;;13.50;100.00;101981.63;5031418;28;20034;-74
2023/07/18 02:19:37;;;;;;;8.63;3.70;;;;;;;13.48;100.00;101981.78;5013392;28;20041;-74
2023/07/18 02:22:03;;;;;;;9.93;4.40;;;;;;;13.37;100.00;101974.25;5031311;28;20080;-74
2023/07/18 02:24:29;;;;;;;10.65;4.90;;;;;;;13.43;100.00;101984.19;5036025;28;20124;-74
2023/07/18 02:26:54;;;;;;;10.43;5.22;;;;;;;13.40;100.00;101983.75;5050230;28;20120;-74
2023/07/18 02:29:20;;;;;;;9.57;5.30;;;;;;;13.41;100.00;101980.88;5050594;28;20033;-74
2023/07/18 02:31:46;;;;;;;8.13;4.35;;;;;;;13.29;100.00;101979.72;5050118;28;20032;-74
2023/07/18 02:34:11;;;;;;;7.65;4.05;;;;;;;13.33;100.00;101994.38;5050125;28;20029;-74
2023/07/18 02:36:37;;;;;;;8.00;4.28;;;;;;;13.29;100.00;101987.75;5050230;28;20044;-74
2023/07/18 02:39:05;;;;;;;12.90;4.35;;;;;;;13.22;100.00;101987.63;5032360;28;20098;-74
2023/07/18 02:41:31;;;;;;;6.85;4.03;;;;;;;13.20;100.00;101988.81;5050367;28;20131;-74
2023/07/18 02:43:56;;;;;;;8.85;4.35;;;;;;;13.20;100.00;101983.47;5049835;28;20124;-74
2023/07/18 02:46:22;;;;;;;8.27;4.75;;;;;;;13.20;100.00;101991.50;5015496;28;20071;-74
2023/07/18 02:48:47;;;;;;;6.57;3.30;;;;;;;13.16;100.00;101988.38;5049744;28;20052;-73
2023/07/18 02:51:12;;;;;;;6.97;4.30;;;;;;;13.18;100.00;101986.34;5031745;28;20037;-74
2023/07/18 02:53:39;;;;;;;9.77;4.65;;;;;;;13.20;100.00;101983.47;5049714;28;20083;-74
2023/07/18 02:56:05;;;;;;;7.88;4.55;;;;;;;13.22;100.00;101986.78;5031890;28;20043;-74
2023/07/18 02:58:30;;;;;;;7.13;4.30;;;;;;;13.27;100.00;101989.78;5049519;28;20025;-74
2023/07/18 03:00:55;;;;;;;7.30;4.18;;;;;;;13.30;100.00;101989.41;5049607;28;20127;-74
2023/07/18 03:03:22;;;;;;;9.38;4.90;;;;;;;13.31;100.00;101983.03;5049372;28;20049;-74
2023/07/18 03:05:52;;;;;;;11.25;4.93;;;;;;;13.35;100.00;101985.13;5049552;28;20555;-74
2023/07/18 03:08:17;;;;;;;9.93;5.32;;;;;;;13.40;100.00;101989.94;5049344;28;20493;-74
2023/07/18 03:10:43;;;;;;;9.63;4.43;;;;;;;13.36;100.00;101988.63;5012330;28;20034;-74
2023/07/18 03:13:08;;;;;;;8.85;4.35;;;;;;;13.31;100.00;101977.69;5014125;28;20075;-74
2023/07/18 03:15:34;;;;;;;8.35;3.97;;;;;;;13.33;100.00;101980.97;5012127;28;20033;-74
2023/07/18 03:18:00;;;;;;;8.77;4.88;;;;;;;13.30;100.00;101978.69;5030320;28;20037;-74
2023/07/18 03:20:26;;;;;;;9.75;4.22;;;;;;;13.32;100.00;101980.16;5030177;28;20049;-74
2023/07/18 03:22:52;;;;;;;9.43;4.05;;;;;;;13.31;100.00;101991.09;5042226;28;20117;-74
2023/07/18 03:25:19;;;;;;;7.45;3.88;;;;;;;13.30;100.00;101989.41;5049179;28;20151;-73
2023/07/18 03:27:45;;;;;;;8.70;5.13;;;;;;;13.22;100.00;101978.75;5049100;28;20484;-74
2023/07/18 03:30:12;;;;;;;9.07;5.28;;;;;;;13.20;100.00;101983.47;5031385;28;20039;-74
2023/07/18 03:32:38;;;;;;;6.30;4.13;;;;;;;13.22;100.00;101984.13;5040646;28;20045;-74
2023/07/18 03:35:04;;;;;;;8.57;4.20;;;;;;;13.16;100.00;101975.81;5043635;28;20059;-74
2023/07/18 03:37:30;;;;;;;7.45;4.32;;;;;;;13.14;100.00;101979.69;5020938;28;20049;-74
2023/07/18 03:39:55;;;;;;;8.30;3.92;;;;;;;13.07;100.00;101984.97;5012276;28;20072;-74
2023/07/18 03:42:21;;;;;;;7.85;3.65;;;;;;;12.98;100.00;101980.72;5029849;28;20558;-74
2023/07/18 03:44:47;;;;;;;9.00;4.38;;;;;;;12.87;100.00;101981.16;5012288;28;20712;-74
2023/07/18 03:47:12;;;;;;;9.82;4.72;;;;;;;12.87;100.00;101997.25;5029520;28;20021;-74
2023/07/18 03:49:38;;;;;;;6.78;3.40;;;;;;;12.87;100.00;101995.38;5029667;28;20055;-74
2023/07/18 03:52:04;;;;;;;6.32;3.92;;;;;;;12.77;100.00;101981.44;5029933;28;20461;-74
2023/07/18 03:54:30;;;;;;;6.28;3.67;;;;;;;12.77;100.00;101992.16;5011952;28;20041;-74
2023/07/18 03:56:55;;;;;;;6.63;3.90;;;;;;;12.76;100.00;101990.50;5029623;28;20633;-74
2023/07/18 03:59:21;;;;;;;9.85;4.63;;;;;;;12.77;100.00;101983.28;5030183;28;20120;-74
2023/07/18 04:01:46;;;;;;;6.97;3.47;;;;;;;12.74;100.00;101980.97;5048546;28;20036;-74
2023/07/18 04:04:13;;;;;;;7.75;3.67;;;;;;;12.80;100.00;101982.91;5030735;28;20321;-74
2023/07/18 04:06:38;;;;;;;8.73;4.47;;;;;;;12.76;100.00;101970.91;5030499;28;20029;-75
2023/07/18 04:09:05;;;;;;;8.85;4.00;;;;;;;12.68;100.00;101971.81;5048436;28;20127;-74
2023/07/18 04:11:30;;;;;;;8.45;3.55;;;;;;;12.62;100.00;101970.69;5048495;28;20037;-74
2023/07/18 04:13:56;;;;;;;9.27;3.80;;;;;;;12.62;100.00;101969.88;5031111;28;20482;-74
2023/07/18 04:16:21;;;;;;;12.25;4.90;;;;;;;12.62;100.00;101964.53;5048199;28;20036;-74
2023/07/18 04:18:46;;;;;;;10.65;4.57;;;;;;;12.65;100.00;101965.00;5048262;28;20025;-74
2023/07/18 04:21:12;;;;;;;11.55;5.15;;;;;;;12.65;100.00;101961.47;5030360;28;20037;-74
2023/07/18 04:23:38;;;;;;;7.07;4.22;;;;;;;12.58;100.00;101958.72;5036323;28;20120;-74
2023/07/18 04:26:03;;;;;;;9.38;4.13;;;;;;;12.55;100.00;101956.41;5037117;28;20029;-74
2023/07/18 04:28:34;;;;;;;7.05;4.45;;;;;;;12.56;100.00;101962.59;5025378;28;20508;-74
2023/07/18 04:31:00;;;;;;;8.43;3.88;;;;;;;12.53;100.00;101947.72;5035668;28;20499;-74
2023/07/18 04:33:25;;;;;;;6.95;3.80;;;;;;;12.58;100.00;101956.03;5017860;28;20535;-74
2023/07/18 04:35:51;;;;;;;12.10;4.97;;;;;;;12.63;100.00;101952.81;5044357;28;20068;-74
2023/07/18 04:38:17;;;;;;;8.73;4.18;;;;;;;12.63;100.00;101956.31;5054864;28;20032;-74
2023/07/18 04:40:43;;;;;;;8.45;3.75;;;;;;;12.55;100.00;101931.47;5054577;28;20032;-74
2023/07/18 04:43:09;;;;;;;8.10;3.67;;;;;;;12.68;100.00;101947.72;5054767;28;20086;-74
2023/07/18 04:45:41;;;;;;;9.23;4.18;;;;;;;12.73;100.00;101953.34;5054566;28;20048;-74
2023/07/18 04:48:06;;;;;;;8.52;4.43;;;;;;;12.92;100.00;101957.34;5035440;28;20033;-74
2023/07/18 04:50:32;;;;;;;9.15;4.80;;;;;;;13.00;100.00;101961.78;5035588;28;20714;-74
2023/07/18 04:52:57;;;;;;;6.10;3.97;;;;;;;13.03;100.00;101958.72;5036224;28;20029;-74
2023/07/18 04:55:22;;;;;;;8.82;4.00;;;;;;;13.02;100.00;101949.03;5035357;28;20036;-74
2023/07/18 04:57:48;;;;;;;7.32;4.50;;;;;;;13.12;100.00;101949.56;5035598;28;20036;-74
2023/07/18 05:00:14;;;;;;;9.77;3.42;;;;;;;13.20;100.00;101949.47;5017836;28;20047;-74
2023/07/18 05:02:40;;;;;;;9.38;3.92;;;;;;;13.30;100.00;101957.25;5017598;28;20029;-74
2023/07/18 05:05:06;;;;;;;8.98;4.25;;;;;;;13.40;100.00;101951.59;5035355;28;20140;-75
2023/07/18 05:07:32;;;;;;;7.30;4.32;;;;;;;13.52;100.00;101952.78;5035645;28;20037;-74
2023/07/18 05:09:57;;;;;;;7.38;3.65;;;;;;;13.61;100.00;101956.16;5035369;28;20574;-74
2023/07/18 05:12:22;;;;;;;7.57;4.70;;;;;;;13.70;100.00;101945.16;5035527;28;20151;-75
2023/07/18 05:14:48;;;;;;;5.78;3.85;;;;;;;13.82;100.00;101954.31;5017575;28;20037;-74
2023/07/18 05:17:13;;;;;;;6.90;3.30;;;;;;;13.79;100.00;101935.13;5035196;28;20037;-74
2023/07/18 05:19:38;;;;;;;6.07;3.13;;;;;;;14.00;100.00;101958.44;5035241;28;20449;-74
2023/07/18 05:22:04;;;;;;;8.60;3.70;;;;;;;13.99;100.00;101952.22;5035203;28;20033;-75
2023/07/18 05:24:30;;;;;;;7.57;3.10;;;;;;;14.10;100.00;101952.75;5050600;28;20025;-75
2023/07/18 05:26:55;;;;;;;6.22;3.15;;;;;;;14.13;100.00;101955.03;5050497;28;20492;-74
2023/07/18 05:29:20;;;;;;;8.18;3.58;;;;;;;14.21;100.00;101949.53;5017479;28;20045;-74
2023/07/18 05:31:46;;;;;;;7.07;3.17;;;;;;;14.17;100.00;101942.88;5045935;28;20064;-74
2023/07/18 05:34:11;;;;;;;12.20;4.25;;;;;;;14.33;100.00;101963.22;5033429;28;20033;-74
2023/07/18 05:36:36;;;;;;;10.55;3.33;;;;;;;14.32;100.00;101957.03;5031856;28;20057;-74
2023/07/18 05:39:02;;;;;;;10.20;3.15;;;;;;;14.36;100.00;101957.50;5014199;28;20083;-74
2023/07/18 05:41:28;;;;;;;5.68;3.10;;;;;;;14.36;100.00;101947.59;5031982;28;20033;-74
2023/07/18 05:43:53;;;;;;;5.25;2.75;;;;;;;14.44;100.00;101960.88;5031962;28;20083;-74
2023/07/18 05:46:19;;;;;;;4.00;2.33;;;;;;;14.47;100.00;101951.59;5031907;28;20099;-74
2023/07/18 05:48:44;;;;;;;6.57;4.07;;;;;;;14.58;100.00;101959.13;5014118;28;20037;-74
2023/07/18 05:51:09;;;;;;;8.88;2.85;;;;;;;14.65;100.00;101956.50;5031854;28;20064;-74
2023/07/18 05:53:35;;;;;;;4.93;2.97;;;;;;;14.75;100.00;101961.50;5031687;28;20033;-75
2023/07/18 05:56:00;;;;;;;8.77;3.47;;;;;;;14.77;100.00;101962.97;5031697;28;20484;-75
2023/07/18 05:58:26;;;;;;;7.20;3.13;;;;;;;14.87;100.00;101960.75;5031680;28;20060;-74
2023/07/18 06:00:51;;;;;;;5.57;2.70;;;;;;;14.93;100.00;101959.13;5031814;28;20029;-74
2023/07/18 06:03:17;;;;;;;6.53;3.53;;;;;;;14.99;100.00;101957.53;5031351;28;20029;-74
2023/07/18 06:05:43;;;;;;;8.15;3.22;;;;;;;15.07;99.88;101970.81;5013954;28;20021;-75
2023/07/18 06:08:09;;;;;;;5.40;2.67;;;;;;;15.15;100.00;101973.31;5033364;28;20099;-74
2023/07/18 06:10:35;;;;;;;6.68;3.70;;;;;;;15.20;99.67;101962.81;5050580;28;20040;-75
2023/07/18 06:13:00;;;;;;;5.80;2.75;;;;;;;15.24;98.49;101969.41;5050408;28;20033;-74
2023/07/18 06:15:25;;;;;;;6.78;2.92;;;;;;;15.22;97.17;101960.75;5050922;28;20024;-75
2023/07/18 06:17:51;;;;;;;7.53;3.10;;;;;;;15.30;100.00;101967.78;5032632;28;20029;-74
2023/07/18 06:20:16;;;;;;;9.13;3.30;;;;;;;15.34;99.26;101977.94;5023131;28;20052;-74
2023/07/18 06:22:44;;;;;;;7.20;3.85;;;;;;;15.38;98.72;101972.16;5031368;28;20056;-74
2023/07/18 06:25:10;;;;;;;8.90;3.13;;;;;;;15.43;98.38;101972.38;5013324;28;20331;-74
2023/07/18 06:27:37;;;;;;;7.72;2.92;;;;;;;15.47;99.18;101965.59;5045072;28;20186;-74
2023/07/18 06:30:03;;;;;;;5.40;2.80;;;;;;;15.52;100.00;101972.00;5050146;28;20039;-74
2023/07/18 06:32:28;;;;;;;5.15;2.85;;;;;;;15.60;99.58;101980.94;5049880;28;20036;-74
2023/07/18 06:34:54;;;;;;;7.13;2.47;;;;;;;15.67;98.50;101979.94;5049975;28;20036;-74
2023/07/18 06:37:20;;;;;;;4.97;2.85;;;;;;;15.72;98.22;101982.06;5049876;28;20068;-74
2023/07/18 06:39:46;;;;;;;6.00;2.85;;;;;;;15.77;95.81;101975.03;5050247;28;20059;-66
2023/07/18 06:42:11;;;;;;;9.60;2.70;;;;;;;15.82;97.68;101974.38;5032352;28;20040;-73
2023/07/18 06:44:38;;;;;;;9.18;3.25;;;;;;;15.87;97.07;101980.00;5013148;28;20061;-75
2023/07/18 06:47:04;;;;;;;9.35;2.75;;;;;;;15.90;93.57;101973.38;5029891;28;20030;-73
2023/07/18 06:49:29;;;;;;;4.00;2.13;;;;;;;15.93;93.46;101978.38;5030168;28;20040;-74
2023/07/18 06:51:54;;;;;;;6.22;1.75;;;;;;;15.97;93.00;101974.22;5030963;28;20376;-73
2023/07/18 06:54:20;;;;;;;6.78;2.13;;;;;;;16.03;92.56;101972.56;5030823;28;20554;-74
2023/07/18 06:56:45;;;;;;;10.07;2.97;;;;;;;16.05;91.95;101963.25;5030505;28;20106;-73
2023/07/18 06:59:13;;;;;;;6.93;2.10;;;;;;;16.08;90.79;101967.41;5030497;28;20033;-73
2023/07/18 07:01:38;;;;;;;5.22;2.60;;;;;;;16.13;91.05;101963.06;5030562;28;20025;-73
2023/07/18 07:04:04;;;;;;;5.28;2.13;;;;;;;16.12;89.20;101966.78;5030118;28;20053;-74
2023/07/18 07:06:29;;;;;;;7.85;2.25;;;;;;;16.16;89.14;101961.81;5012651;28;20041;-74
2023/07/18 07:08:55;;;;;;;5.25;2.50;;;;;;;16.21;89.96;101965.53;5012667;28;20366;-75
2023/07/18 07:11:20;;;;;;;5.60;2.20;;;;;;;16.32;88.79;101963.25;5030217;28;20065;-74
2023/07/18 07:13:45;;;;;;;5.70;2.38;;;;;;;16.32;86.74;101971.34;5030133;28;20033;-74
2023/07/18 07:16:11;;;;;;;6.10;2.17;;;;;;;16.34;87.45;101969.28;5039356;28;20092;-73
2023/07/18 07:18:36;;;;;;;4.78;1.73;;;;;;;16.41;87.49;101962.03;5043295;28;20485;-73
2023/07/18 07:21:02;;;;;;;4.97;2.65;;;;;;;16.50;86.03;101971.53;5012377;28;20060;-73
2023/07/18 07:23:30;;;;;;;3.85;1.98;;;;;;;16.57;88.18;101964.28;5036132;28;20082;-74
2023/07/18 07:25:56;;;;;;;4.85;1.50;;;;;;;16.67;86.97;101971.13;5039835;28;20025;-68
2023/07/18 07:28:23;;;;;;;3.55;2.10;;;;;;;16.81;88.42;101962.00;5029865;28;20044;-71
2023/07/18 07:30:50;;;;;;;4.88;2.58;;;;;;;16.81;84.59;101967.38;5028587;28;20114;-70
2023/07/18 07:33:15;;;;;;;2.95;1.73;;;;;;;16.89;86.09;101967.16;5027858;28;20037;-73
2023/07/18 07:35:40;;;;;;;3.53;1.83;;;;;;;16.93;85.94;101960.31;5037452;28;20100;-72
2023/07/18 07:38:06;;;;;;;6.35;1.73;;;;;;;16.99;84.57;101964.84;5029507;28;20112;-71
2023/07/18 07:40:32;;;;;;;6.70;2.30;;;;;;;17.06;86.26;101949.50;5026560;28;20146;-74
2023/07/18 07:42:57;;;;;;;7.25;2.50;;;;;;;17.16;86.63;101958.97;5034298;28;20104;-74
2023/07/18 07:45:22;;;;;;;4.95;2.42;;;;;;;17.24;86.26;101954.19;5010035;28;20384;-72
2023/07/18 07:47:48;;;;;;;3.17;1.25;;;;;;;17.39;85.02;101958.47;5028525;28;20078;-72
2023/07/18 07:50:14;;;;;;;4.43;2.40;;;;;;;17.55;83.74;101957.16;5026164;28;20029;-76
2023/07/18 07:52:39;;;;;;;6.75;1.70;;;;;;;17.71;81.24;101956.63;5047792;28;20075;-73
2023/07/18 07:55:06;;;;;;;2.72;1.40;;;;;;;17.86;79.83;101953.66;5030283;28;20033;-73
2023/07/18 07:57:31;;;;;;;4.78;1.80;;;;;;;17.90;77.16;101961.13;5047031;28;20136;-73
2023/07/18 07:59:56;;;;;;;1.85;0.90;;;;;;;17.99;76.06;101966.25;5048320;28;20123;-73
2023/07/18 08:02:22;;;;;;;3.80;0.80;;;;;;;18.03;75.48;101954.81;5030021;28;20068;-73
2023/07/18 08:04:48;;;;;;;5.45;1.63;;;;;;;18.08;75.45;101944.19;5047708;28;20056;-73
2023/07/18 08:07:15;;;;;;;1.85;1.02;;;;;;;18.31;77.30;101951.69;5030365;28;20121;-70
2023/07/18 08:09:41;;;;;;;7.18;1.70;;;;;;;18.46;75.77;101954.00;5048120;28;20451;-73
2023/07/18 08:12:07;;;;;;;3.60;1.25;;;;;;;18.53;72.28;101959.38;5048168;28;20040;-71
2023/07/18 08:14:33;;;;;;;3.80;1.13;;;;;;;18.68;74.59;101949.03;5048062;28;20061;-71
2023/07/18 08:16:59;;;;;;;1.13;1.00;;;;;;;19.80;69.02;101953.28;5047353;28;20037;-71
2023/07/18 08:19:24;;;;;;;2.35;0.93;;;;;;;22.02;61.07;101948.56;5047923;28;20029;-75
2023/07/18 08:21:50;;;;;;;1.13;0.63;;;;;;;24.37;52.68;101952.47;5044160;28;20104;-74
2023/07/18 08:24:15;;;;;;;4.32;1.15;;;;;;;26.01;47.60;101941.03;5048155;28;20131;-74
2023/07/18 08:26:40;;;;;;;2.67;0.57;;;;;;;27.50;43.56;101943.31;5029605;28;20021;-74
2023/07/18 08:29:06;;;;;;;0.52;0.52;;;;;;;28.79;40.51;101933.66;5047437;28;20068;-74
2023/07/18 08:31:31;;;;;;;2.63;1.15;;;;;;;29.84;38.13;101929.97;5011339;28;20029;-74
2023/07/18 08:33:57;;;;;;;1.55;1.00;;;;;;;30.62;35.43;101930.19;5029237;28;20150;-74
2023/07/18 08:36:22;;;;;;;2.10;1.13;;;;;;;30.28;34.14;101926.72;5011344;28;20091;-74
2023/07/18 08:38:51;;;;;;;2.47;1.35;;;;;;;29.90;34.57;101923.28;5011475;28;20041;-74
2023/07/18 08:41:18;;;;;;;1.70;0.60;;;;;;;29.80;34.97;101918.75;5011184;28;20540;-75
2023/07/18 08:43:44;;;;;;;2.20;0.80;;;;;;;29.72;33.68;101916.69;5029021;28;20029;-75
2023/07/18 08:46:13;;;;;;;2.22;0.55;;;;;;;29.43;33.59;101920.41;5029176;28;20051;-74
2023/07/18 08:48:48;;;;;;;1.40;0.50;;;;;;;29.03;34.52;101917.13;5029178;28;20471;-75
2023/07/18 08:51:14;;;;;;;2.38;0.70;;;;;;;29.96;33.01;101905.53;5029011;28;20087;-74
2023/07/18 08:53:40;;;;;;;1.85;0.60;;;;;;;30.73;33.46;101904.06;5045997;28;20419;-75
2023/07/18 08:56:09;;;;;;;0.60;0.60;;;;;;;31.21;31.56;101901.66;5028843;28;20049;-75
2023/07/18 08:58:36;;;;;;;3.80;0.65;;;;;;;31.49;31.27;101898.00;5027474;28;20400;-74
2023/07/18 09:01:02;;;;;;;2.67;0.45;;;;;;;31.44;29.62;101896.22;5028280;28;20488;-75
2023/07/18 09:03:27;;;;;;;3.67;0.63;;;;;;;31.74;29.88;101897.38;5038284;28;20049;-73
2023/07/18 09:05:53;;;;;;;2.70;0.70;;;;;;;31.05;29.85;101883.84;5046224;28;20083;-75
2023/07/18 09:08:18;;;;;;;3.45;0.93;;;;;;;29.27;33.59;101884.09;5022585;28;20624;-74
2023/07/18 09:10:45;;;;;;;2.15;0.70;;;;;;;27.32;34.58;101877.13;5051331;28;20025;-75
2023/07/18 09:13:11;;;;;;;0.82;0.82;;;;;;;26.04;38.02;101875.97;5033694;28;20384;-75
2023/07/18 09:15:37;;;;;;;1.27;0.40;;;;;;;25.12;40.61;101877.50;5051602;28;20033;-74
2023/07/18 09:18:08;;;;;;;4.90;0.73;;;;;;;24.43;40.68;101881.31;5014778;28;20032;-75
2023/07/18 09:20:34;;;;;;;1.83;0.63;;;;;;;23.98;42.20;101876.41;5032525;28;20457;-75
2023/07/18 09:23:03;;;;;;;0.77;0.70;;;;;;;23.48;44.42;101867.53;5041594;28;20108;-73
2023/07/18 09:25:29;;;;;;;2.65;0.40;;;;;;;23.32;45.57;101879.38;5050851;28;20384;-74
2023/07/18 09:27:56;;;;;;;0.77;0.35;;;;;;;23.12;43.84;101871.81;5049811;28;20480;-74
2023/07/18 09:30:29;;;;;;;2.47;0.75;;;;;;;22.86;43.97;101873.38;5013424;28;20175;-74
2023/07/18 09:32:55;;;;;;;0.45;0.45;;;;;;;22.66;46.05;101863.06;5032770;28;20534;-74
2023/07/18 09:35:20;;;;;;;2.42;0.70;;;;;;;22.47;43.65;101857.13;5029663;28;20039;-72
2023/07/18 09:37:48;;;;;;;7.05;1.13;;;;;;;22.40;45.09;101867.34;5034706;28;20395;-72
2023/07/18 09:40:15;;;;;;;1.85;0.68;;;;;;;22.50;45.72;101859.34;5050341;28;20017;-73
2023/07/18 09:42:46;;;;;;;3.38;0.50;;;;;;;22.56;46.93;101850.19;5031844;28;20586;-72
2023/07/18 09:45:15;;;;;;;2.20;0.50;;;;;;;22.49;45.58;101857.69;5031992;28;20037;-72
2023/07/18 09:47:42;;;;;;;2.22;0.75;;;;;;;22.54;46.23;101857.75;5044738;28;20178;-73
2023/07/18 09:50:09;;;;;;;2.00;0.80;;;;;;;22.62;44.30;101851.06;5032986;28;20119;-72
2023/07/18 09:52:44;;;;;;;1.42;0.98;;;;;;;22.58;46.34;101858.06;5031326;28;20553;-69
2023/07/18 09:55:10;;;;;;;2.97;0.70;;;;;;;22.46;46.88;101850.06;5049700;28;20025;-70
2023/07/18 09:57:41;;;;;;;0.47;0.47;;;;;;;22.31;45.70;101859.63;5032588;28;20044;-69
2023/07/18 10:00:11;;;;;;;0.70;0.50;;;;;;;22.02;46.88;101850.75;5050128;28;20057;-73
2023/07/18 10:02:38;;;;;;;2.42;0.60;;;;;;;21.92;46.32;101845.16;5048851;28;20060;-71
2023/07/18 10:05:05;;;;;;;0.38;0.38;;;;;;;21.95;46.45;101852.81;5049960;28;20048;-73
2023/07/18 10:07:34;;;;;;;1.67;0.68;;;;;;;22.01;47.72;101845.59;5031647;28;20472;-72
2023/07/18 10:10:01;;;;;;;1.05;0.50;;;;;;;22.21;46.78;101847.78;5049262;28;20079;-73
2023/07/18 10:12:27;;;;;;;1.70;0.90;;;;;;;22.48;48.52;101843.28;5049494;28;20395;-72
2023/07/18 10:15:00;;;;;;;1.33;0.57;;;;;;;22.68;48.33;101839.16;5049589;28;20108;-73
2023/07/18 10:17:37;;;;;;;1.40;0.40;;;;;;;22.83;48.13;101841.25;5049418;28;20175;-72
2023/07/18 10:20:30;;;;;;;1.15;1.02;;;;;;;22.92;46.30;101842.44;5049380;28;20416;-71
2023/07/18 10:22:58;;;;;;;1.33;0.75;;;;;;;22.86;46.50;101825.22;5049175;28;20025;-70
2023/07/18 10:25:26;;;;;;;0.70;0.70;;;;;;;22.74;48.55;101825.38;5050028;28;20029;-71
2023/07/18 10:27:51;;;;;;;0.57;0.57;;;;;;;22.66;46.14;101812.25;5050424;28;20029;-70
2023/07/18 10:30:21;;;;;;;1.52;0.75;;;;;;;22.79;46.34;101815.63;5050045;28;20032;-72
2023/07/18 10:32:55;;;;;;;2.22;0.70;;;;;;;22.60;47.17;101815.97;5048883;28;20500;-72
2023/07/18 10:35:24;;;;;;;3.60;0.90;;;;;;;22.30;48.38;101810.97;5049534;28;20106;-71
2023/07/18 10:37:55;;;;;;;1.92;1.08;;;;;;;22.18;48.05;101805.59;5049841;28;20583;-71
2023/07/18 10:40:31;;;;;;;1.95;0.68;;;;;;;22.25;50.12;101800.84;5049689;28;20040;-71
2023/07/18 10:42:56;;;;;;;0.68;0.68;;;;;;;22.42;46.65;101800.78;5044577;28;20036;-70
2023/07/18 10:45:22;;;;;;;3.25;1.33;;;;;;;22.67;47.10;101799.47;5049304;28;20032;-69
2023/07/18 10:47:47;;;;;;;2.20;0.60;;;;;;;22.92;48.20;101798.91;5049663;28;20119;-70
2023/07/18 10:50:14;;;;;;;0.63;0.52;;;;;;;23.05;45.33;101790.34;5031488;28;20032;-71
2023/07/18 10:52:40;;;;;;;4.13;0.73;;;;;;;23.18;46.70;101783.69;5030748;28;20036;-71
2023/07/18 10:55:07;;;;;;;3.80;1.58;;;;;;;23.42;49.29;101797.75;5049438;28;20499;-70
2023/07/18 10:57:34;;;;;;;1.73;0.70;;;;;;;23.48;45.97;101783.13;5049000;28;20029;-70
2023/07/18 11:00:01;;;;;;;2.55;0.90;;;;;;;23.53;45.16;101788.59;5031339;28;20388;-70
2023/07/18 11:02:28;;;;;;;3.00;0.70;;;;;;;23.48;44.52;101783.13;5031040;28;20577;-73
2023/07/18 11:04:53;;;;;;;2.10;0.77;;;;;;;23.44;43.64;101787.44;5049026;28;20519;-73
2023/07/18 11:07:40;;;;;;;1.65;0.80;;;;;;;23.51;45.85;101784.50;5031219;28;20033;-71
2023/07/18 11:10:08;;;;;;;4.32;0.90;;;;;;;23.22;44.24;101779.38;5048638;28;20474;-72
2023/07/18 11:12:33;;;;;;;1.58;1.15;;;;;;;23.12;45.40;101773.84;5048795;28;20040;-71
2023/07/18 11:14:58;;;;;;;3.33;1.52;;;;;;;23.02;46.12;101781.91;5048891;28;20029;-71